createdAt,value
2018-04-15T00:00:09.730Z,14.03
2018-04-15T00:02:37.260Z,14.03
2018-04-15T00:05:04.818Z,14.01
2018-04-15T00:07:32.381Z,14.01
2018-04-15T00:09:59.890Z,13.99
2018-04-15T00:12:27.428Z,13.97
2018-04-15T00:14:55.273Z,13.96
2018-04-15T00:17:22.806Z,13.98
2018-04-15T00:19:50.589Z,13.93
2018-04-15T00:22:18.888Z,13.88
2018-04-15T00:24:46.455Z,13.88
2018-04-15T00:27:13.996Z,13.78
2018-04-15T00:29:41.541Z,13.74
2018-04-15T00:32:09.111Z,13.71
2018-04-15T00:34:36.678Z,13.67
2018-04-15T00:37:04.236Z,13.58
2018-04-15T00:39:31.779Z,13.51
2018-04-15T00:41:59.318Z,13.50
2018-04-15T00:44:26.850Z,13.41
2018-04-15T00:46:54.423Z,13.44
2018-04-15T00:49:21.961Z,13.41
2018-04-15T00:51:49.490Z,13.39
2018-04-15T00:54:18.002Z,13.39
2018-04-15T00:56:45.598Z,13.34
2018-04-15T00:59:13.156Z,13.33
2018-04-15T01:01:40.715Z,13.30
2018-04-15T01:04:08.527Z,13.27
2018-04-15T01:06:36.070Z,13.22
2018-04-15T01:09:03.602Z,13.17
2018-04-15T01:11:31.215Z,13.13
2018-04-15T01:13:59.027Z,13.11
2018-04-15T01:16:26.979Z,13.09
2018-04-15T01:18:54.618Z,13.11
2018-04-15T01:21:22.146Z,13.11
2018-04-15T01:23:50.035Z,13.05
2018-04-15T01:26:18.250Z,13.00
2018-04-15T01:28:45.823Z,12.99
2018-04-15T01:31:13.378Z,12.97
2018-04-15T01:33:40.941Z,12.98
2018-04-15T01:36:08.753Z,13.01
2018-04-15T01:38:36.306Z,12.99
2018-04-15T01:41:03.822Z,12.97
2018-04-15T01:43:31.382Z,12.98
2018-04-15T01:45:58.907Z,12.97
2018-04-15T01:48:26.443Z,12.92
2018-04-15T01:50:54.162Z,12.91
2018-04-15T01:53:21.681Z,12.88
2018-04-15T01:55:49.282Z,12.83
2018-04-15T01:58:16.811Z,12.81
2018-04-15T02:00:44.331Z,12.83
2018-04-15T02:03:11.906Z,12.81
2018-04-15T02:05:39.428Z,12.84
2018-04-15T02:08:07.835Z,12.84
2018-04-15T02:10:35.943Z,12.80
2018-04-15T02:13:03.584Z,12.81
2018-04-15T02:15:31.124Z,12.80
2018-04-15T02:17:58.660Z,12.80
2018-04-15T02:20:26.818Z,12.79
2018-04-15T02:22:54.346Z,12.76
2018-04-15T02:25:21.929Z,12.69
2018-04-15T02:27:49.468Z,12.72
2018-04-15T02:30:17.000Z,12.69
2018-04-15T02:32:44.564Z,12.60
2018-04-15T02:35:12.086Z,12.66
2018-04-15T02:37:39.608Z,12.67
2018-04-15T02:40:07.154Z,12.73
2018-04-15T02:42:34.692Z,12.75
2018-04-15T02:45:02.356Z,12.69
2018-04-15T02:47:29.976Z,12.63
2018-04-15T02:49:57.501Z,12.64
2018-04-15T02:52:25.048Z,12.61
2018-04-15T02:54:52.850Z,12.60
2018-04-15T02:57:20.476Z,12.54
2018-04-15T02:59:47.990Z,12.55
2018-04-15T03:02:15.504Z,12.53
2018-04-15T03:04:43.063Z,12.55
2018-04-15T03:07:10.603Z,12.56
2018-04-15T03:09:38.159Z,12.58
2018-04-15T03:12:05.684Z,12.61
2018-04-15T03:14:33.228Z,12.59
2018-04-15T03:17:00.752Z,12.60
2018-04-15T03:19:28.275Z,12.61
2018-04-15T03:21:55.832Z,12.63
2018-04-15T03:24:23.456Z,12.64
2018-04-15T03:26:50.982Z,12.64
2018-04-15T03:29:18.516Z,12.69
2018-04-15T03:31:46.038Z,12.65
2018-04-15T03:34:13.590Z,12.67
2018-04-15T03:36:41.138Z,12.68
2018-04-15T03:39:08.681Z,12.70
2018-04-15T03:41:36.261Z,12.69
2018-04-15T03:44:03.789Z,12.68
2018-04-15T03:46:31.342Z,12.68
2018-04-15T03:48:58.873Z,12.62
2018-04-15T03:51:26.399Z,12.63
2018-04-15T03:53:53.932Z,12.62
2018-04-15T03:56:21.450Z,12.60
2018-04-15T03:58:49.005Z,12.62
2018-04-15T04:01:16.520Z,12.64
2018-04-15T04:03:44.026Z,12.63
2018-04-15T04:06:11.562Z,12.62
2018-04-15T04:08:39.113Z,12.60
2018-04-15T04:11:06.688Z,12.55
2018-04-15T04:13:34.410Z,12.55
2018-04-15T04:16:01.962Z,12.54
2018-04-15T04:21:43.502Z,12.52
2018-04-15T04:24:22.869Z,12.56
2018-04-15T04:26:50.428Z,12.55
2018-04-15T04:29:17.968Z,12.54
2018-04-15T04:31:45.567Z,12.54
2018-04-15T04:34:13.091Z,12.55
2018-04-15T04:36:40.643Z,12.56
2018-04-15T04:39:08.585Z,12.56
2018-04-15T04:41:36.112Z,12.61
2018-04-15T04:44:03.673Z,12.62
2018-04-15T04:46:31.190Z,12.61
2018-04-15T04:48:59.017Z,12.60
2018-04-15T04:51:26.558Z,12.68
2018-04-15T04:53:54.110Z,12.72
2018-04-15T04:56:21.669Z,12.67
2018-04-15T04:58:49.467Z,12.66
2018-04-15T05:01:16.988Z,12.70
2018-04-15T05:03:44.508Z,12.69
2018-04-15T05:06:12.040Z,12.71
2018-04-15T05:08:39.645Z,12.72
2018-04-15T05:11:07.234Z,12.75
2018-04-15T05:13:34.820Z,12.75
2018-04-15T05:16:02.333Z,12.76
2018-04-15T05:18:29.946Z,12.79
2018-04-15T05:20:57.478Z,12.83
2018-04-15T05:23:25.065Z,12.84
2018-04-15T05:25:52.795Z,12.87
2018-04-15T05:28:20.322Z,12.89
2018-04-15T05:30:47.887Z,12.95
2018-04-15T05:33:15.402Z,12.97
2018-04-15T05:35:43.073Z,13.02
2018-04-15T05:38:10.664Z,12.96
2018-04-15T05:40:38.189Z,13.07
2018-04-15T05:43:05.725Z,13.12
2018-04-15T05:45:33.341Z,13.17
2018-04-15T05:48:00.899Z,13.20
2018-04-15T05:50:28.432Z,13.20
2018-04-15T05:52:55.940Z,13.22
2018-04-15T05:55:23.481Z,13.23
2018-04-15T05:57:51.055Z,13.23
2018-04-15T06:00:18.705Z,13.32
2018-04-15T06:02:46.479Z,13.38
2018-04-15T06:05:14.027Z,13.47
2018-04-15T06:07:41.551Z,13.60
2018-04-15T06:10:09.337Z,13.74
2018-04-15T06:12:36.906Z,13.93
2018-04-15T06:15:04.462Z,14.14
2018-04-15T06:17:32.320Z,14.37
2018-04-15T06:19:59.859Z,14.46
2018-04-15T06:22:27.446Z,14.49
2018-04-15T06:24:55.075Z,14.47
2018-04-15T06:27:22.610Z,14.42
2018-04-15T06:29:50.429Z,14.41
2018-04-15T06:32:18.066Z,14.37
2018-04-15T06:34:45.612Z,14.36
2018-04-15T06:37:13.424Z,14.42
2018-04-15T06:39:41.287Z,14.41
2018-04-15T06:42:08.814Z,14.46
2018-04-15T06:44:36.391Z,14.47
2018-04-15T06:47:03.945Z,14.52
2018-04-15T06:49:31.472Z,14.57
2018-04-15T06:51:59.031Z,14.66
2018-04-15T06:54:26.615Z,14.98
2018-04-15T06:56:54.385Z,15.17
2018-04-15T06:59:21.924Z,15.25
2018-04-15T07:01:49.428Z,15.46
2018-04-15T07:04:16.976Z,15.60
2018-04-15T07:06:44.498Z,15.63
2018-04-15T07:09:12.048Z,15.85
2018-04-15T07:11:39.890Z,16.06
2018-04-15T07:14:07.583Z,16.03
2018-04-15T07:16:35.201Z,15.94
2018-04-15T07:19:02.744Z,16.06
2018-04-15T07:21:30.336Z,15.99
2018-04-15T07:23:57.881Z,16.18
2018-04-15T07:26:25.478Z,16.47
2018-04-15T07:28:53.039Z,16.63
2018-04-15T07:31:20.733Z,16.70
2018-04-15T07:33:48.243Z,16.87
2018-04-15T07:36:16.053Z,16.43
2018-04-15T07:38:43.610Z,16.53
2018-04-15T07:41:11.177Z,16.80
2018-04-15T07:43:38.701Z,16.76
2018-04-15T07:46:07.066Z,16.91
2018-04-15T07:48:34.713Z,17.08
2018-04-15T07:51:02.266Z,17.41
2018-04-15T07:53:29.832Z,17.63
2018-04-15T07:55:57.383Z,17.60
2018-04-15T07:58:24.931Z,17.37
2018-04-15T08:00:52.646Z,17.42
2018-04-15T08:03:20.178Z,17.45
2018-04-15T08:05:48.242Z,17.66
2018-04-15T08:08:15.846Z,17.83
2018-04-15T08:10:43.467Z,17.90
2018-04-15T08:13:11.364Z,18.03
2018-04-15T08:15:38.882Z,18.10
2018-04-15T08:18:06.707Z,18.34
2018-04-15T08:20:34.291Z,18.47
2018-04-15T08:23:02.041Z,18.56
2018-04-15T08:25:29.575Z,18.81
2018-04-15T08:27:57.106Z,19.14
2018-04-15T08:30:24.650Z,19.41
2018-04-15T08:32:52.214Z,19.74
2018-04-15T08:35:19.758Z,20.12
2018-04-15T08:37:48.045Z,20.61
2018-04-15T08:40:15.863Z,21.06
2018-04-15T08:42:43.990Z,21.41
2018-04-15T08:45:11.559Z,21.94
2018-04-15T08:47:39.136Z,22.50
2018-04-15T08:50:07.124Z,22.78
2018-04-15T08:52:34.682Z,22.13
2018-04-15T08:55:02.343Z,22.45
2018-04-15T08:57:29.900Z,22.83
2018-04-15T08:59:57.430Z,23.21
2018-04-15T09:02:24.982Z,23.26
2018-04-15T09:04:52.816Z,22.77
2018-04-15T09:07:20.676Z,22.97
2018-04-15T09:09:48.219Z,22.98
2018-04-15T09:12:16.551Z,23.44
2018-04-15T09:14:44.122Z,23.86
2018-04-15T09:17:11.691Z,24.51
2018-04-15T09:19:39.544Z,24.96
2018-04-15T09:22:07.282Z,25.20
2018-04-15T09:24:37.088Z,25.01
2018-04-15T09:27:05.983Z,24.76
2018-04-15T09:29:34.448Z,24.86
2018-04-15T09:32:02.323Z,24.44
2018-04-15T09:34:31.712Z,25.10
2018-04-15T09:36:59.434Z,25.45
2018-04-15T09:39:27.124Z,25.36
2018-04-15T09:41:54.654Z,25.28
2018-04-15T09:44:22.195Z,25.17
2018-04-15T09:46:49.723Z,25.00
2018-04-15T09:49:17.801Z,24.50
2018-04-15T09:51:45.410Z,25.02
2018-04-15T09:54:12.988Z,24.75
2018-04-15T09:56:42.390Z,25.01
2018-04-15T09:59:10.004Z,24.97
2018-04-15T10:01:37.526Z,25.22
2018-04-15T10:04:05.090Z,25.24
2018-04-15T10:06:32.661Z,24.76
2018-04-15T10:09:00.187Z,24.45
2018-04-15T10:11:27.746Z,24.09
2018-04-15T10:13:55.560Z,24.02
2018-04-15T10:16:23.926Z,24.21
2018-04-15T10:18:51.463Z,24.51
2018-04-15T10:21:18.996Z,24.99
2018-04-15T10:23:46.579Z,25.34
2018-04-15T10:26:14.228Z,24.47
2018-04-15T10:28:42.050Z,24.02
2018-04-15T10:31:09.921Z,24.35
2018-04-15T10:33:38.238Z,24.68
2018-04-15T10:36:05.867Z,24.10
2018-04-15T10:38:33.695Z,24.76
2018-04-15T10:41:02.740Z,25.78
2018-04-15T10:43:30.872Z,26.10
2018-04-15T10:46:03.056Z,26.13
2018-04-15T10:48:31.375Z,26.10
2018-04-15T10:50:58.977Z,26.03
2018-04-15T10:53:26.515Z,25.59
2018-04-15T10:55:54.056Z,25.82
2018-04-15T10:58:21.599Z,27.03
2018-04-15T11:00:49.121Z,27.63
2018-04-15T11:03:16.717Z,27.51
2018-04-15T11:05:44.279Z,27.09
2018-04-15T11:08:11.817Z,26.88
2018-04-15T11:10:40.613Z,26.61
2018-04-15T11:13:08.173Z,26.71
2018-04-15T11:15:35.707Z,27.75
2018-04-15T11:18:03.335Z,28.20
2018-04-15T11:20:31.693Z,29.38
2018-04-15T11:22:59.217Z,29.96
2018-04-15T11:25:27.724Z,29.47
2018-04-15T11:27:55.278Z,30.24
2018-04-15T11:30:22.831Z,31.25
2018-04-15T11:32:51.696Z,30.23
2018-04-15T11:35:19.365Z,31.74
2018-04-15T11:37:46.978Z,33.08
2018-04-15T11:40:14.516Z,33.94
2018-04-15T11:42:42.057Z,34.77
2018-04-15T11:45:09.780Z,34.69
2018-04-15T11:47:37.319Z,34.92
2018-04-15T11:50:04.863Z,35.25
2018-04-15T11:52:32.445Z,35.77
2018-04-15T11:54:59.978Z,35.54
2018-04-15T11:57:27.527Z,36.45
2018-04-15T11:59:55.305Z,36.90
2018-04-15T12:02:22.913Z,36.27
2018-04-15T12:04:50.506Z,35.74
2018-04-15T12:07:18.031Z,35.15
2018-04-15T12:09:45.861Z,34.19
2018-04-15T12:12:13.447Z,35.01
2018-04-15T12:14:40.979Z,35.30
2018-04-15T12:17:08.526Z,35.98
2018-04-15T12:19:36.132Z,37.51
2018-04-15T12:22:03.688Z,36.89
2018-04-15T12:24:31.223Z,36.45
2018-04-15T12:26:58.793Z,36.25
2018-04-15T12:29:26.652Z,35.34
2018-04-15T12:31:54.199Z,35.30
2018-04-15T12:34:21.751Z,35.95
2018-04-15T12:36:49.540Z,36.06
2018-04-15T12:39:17.223Z,36.02
2018-04-15T12:41:44.948Z,35.59
2018-04-15T12:44:12.742Z,35.17
2018-04-15T12:46:40.312Z,35.43
2018-04-15T12:49:07.841Z,34.70
2018-04-15T12:51:35.422Z,33.94
2018-04-15T12:54:02.961Z,33.48
2018-04-15T12:56:30.847Z,33.16
2018-04-15T12:58:58.380Z,32.55
2018-04-15T13:01:25.900Z,31.60
2018-04-15T13:03:53.485Z,30.61
2018-04-15T13:06:21.020Z,30.13
2018-04-15T13:08:48.547Z,29.70
2018-04-15T13:11:16.077Z,29.56
2018-04-15T13:13:43.672Z,29.30
2018-04-15T13:16:11.434Z,28.66
2018-04-15T13:18:38.951Z,28.80
2018-04-15T13:21:06.528Z,29.00
2018-04-15T13:23:34.085Z,27.87
2018-04-15T13:26:01.619Z,28.12
2018-04-15T13:28:29.154Z,28.18
2018-04-15T13:30:56.716Z,28.17
2018-04-15T13:33:25.410Z,28.13
2018-04-15T13:35:53.251Z,28.49
2018-04-15T13:38:20.798Z,27.59
2018-04-15T13:40:48.401Z,27.44
2018-04-15T13:43:16.060Z,27.30
2018-04-15T13:45:43.585Z,27.14
2018-04-15T13:48:11.379Z,26.60
2018-04-15T13:50:39.890Z,26.22
2018-04-15T13:53:07.433Z,25.89
2018-04-15T13:55:35.183Z,25.68
2018-04-15T13:58:02.743Z,25.87
2018-04-15T14:00:30.304Z,25.82
2018-04-15T14:02:57.833Z,25.70
2018-04-15T14:05:25.391Z,25.87
2018-04-15T14:07:52.988Z,25.89
2018-04-15T14:10:20.853Z,26.23
2018-04-15T14:12:48.416Z,26.75
2018-04-15T14:15:16.024Z,26.76
2018-04-15T14:17:43.604Z,26.73
2018-04-15T14:20:11.719Z,27.29
2018-04-15T14:22:39.368Z,27.16
2018-04-15T14:25:06.998Z,26.82
2018-04-15T14:27:35.744Z,26.37
2018-04-15T14:30:03.704Z,26.35
2018-04-15T14:32:31.360Z,25.95
2018-04-15T14:34:58.930Z,25.60
2018-04-15T14:37:26.586Z,25.19
2018-04-15T14:39:54.514Z,25.27
2018-04-15T14:42:22.157Z,25.50
2018-04-15T14:44:49.831Z,26.39
2018-04-15T14:47:17.442Z,27.20
2018-04-15T14:49:45.211Z,27.69
2018-04-15T14:52:12.897Z,27.95
2018-04-15T14:54:40.712Z,27.50
2018-04-15T14:57:09.106Z,26.78
2018-04-15T14:59:36.697Z,26.22
2018-04-15T15:02:04.955Z,25.86
2018-04-15T15:04:32.822Z,25.35
2018-04-15T15:07:00.378Z,24.92
2018-04-15T15:09:27.992Z,24.85
2018-04-15T15:11:57.153Z,24.82
2018-04-15T15:14:24.677Z,25.00
2018-04-15T15:16:52.194Z,24.87
2018-04-15T15:19:19.805Z,25.06
2018-04-15T15:21:47.417Z,24.99
2018-04-15T15:24:14.946Z,24.86
2018-04-15T15:26:42.750Z,24.61
2018-04-15T15:29:10.519Z,24.46
2018-04-15T15:31:38.313Z,24.38
2018-04-15T15:34:06.153Z,24.28
2018-04-15T15:36:33.882Z,24.05
2018-04-15T15:39:01.424Z,23.97
2018-04-15T15:41:29.289Z,23.80
2018-04-15T15:43:56.937Z,23.57
2018-04-15T15:46:24.470Z,23.44
2018-04-15T15:48:52.561Z,23.47
2018-04-15T15:51:20.138Z,23.49
2018-04-15T15:53:47.692Z,23.65
2018-04-15T15:56:15.257Z,23.71
2018-04-15T15:58:42.823Z,23.65
2018-04-15T16:01:10.373Z,23.62
2018-04-15T16:03:37.893Z,23.49
2018-04-15T16:06:05.412Z,23.45
2018-04-15T16:08:33.018Z,23.43
2018-04-15T16:11:00.523Z,23.37
2018-04-15T16:13:28.107Z,23.17
2018-04-15T16:15:55.665Z,23.02
2018-04-15T16:18:23.531Z,22.99
2018-04-15T16:20:51.278Z,22.89
2018-04-15T16:23:18.808Z,22.83
2018-04-15T16:25:46.365Z,22.82
2018-04-15T16:28:13.889Z,22.69
2018-04-15T16:30:41.897Z,22.67
2018-04-15T16:33:09.437Z,22.64
2018-04-15T16:35:37.055Z,22.63
2018-04-15T16:38:04.680Z,22.63
2018-04-15T16:40:32.237Z,22.62
2018-04-15T16:42:59.803Z,22.61
2018-04-15T16:45:27.402Z,22.60
2018-04-15T16:47:55.014Z,22.58
2018-04-15T16:50:22.604Z,22.56
2018-04-15T16:52:50.202Z,22.54
2018-04-15T16:55:17.859Z,22.52
2018-04-15T16:57:45.397Z,22.45
2018-04-15T17:00:13.055Z,22.43
2018-04-15T17:02:40.538Z,22.40
2018-04-15T17:05:08.078Z,22.34
2018-04-15T17:07:35.603Z,22.29
2018-04-15T17:10:03.529Z,22.25
2018-04-15T17:12:31.392Z,22.21
2018-04-15T17:14:59.054Z,22.18
2018-04-15T17:17:26.940Z,22.14
2018-04-15T17:19:54.500Z,22.11
2018-04-15T17:22:22.119Z,22.06
2018-04-15T17:24:49.683Z,21.99
2018-04-15T17:27:17.226Z,21.92
2018-04-15T17:29:45.588Z,21.86
2018-04-15T17:32:13.150Z,21.79
2018-04-15T17:34:40.918Z,21.70
2018-04-15T17:37:08.468Z,21.61
2018-04-15T17:39:38.120Z,21.53
2018-04-15T17:42:05.767Z,21.47
2018-04-15T17:44:33.366Z,21.42
2018-04-15T17:47:00.962Z,21.36
2018-04-15T17:49:28.549Z,21.29
2018-04-15T17:51:56.343Z,21.24
2018-04-15T17:54:24.164Z,21.19
2018-04-15T17:56:51.815Z,21.15
2018-04-15T17:59:19.422Z,21.10
2018-04-15T18:01:47.011Z,21.05
2018-04-15T18:04:14.686Z,21.00
2018-04-15T18:06:42.293Z,20.95
2018-04-15T18:09:12.170Z,20.90
2018-04-15T18:11:42.119Z,20.86
2018-04-15T18:14:11.926Z,20.82
2018-04-15T18:16:39.784Z,20.77
2018-04-15T18:19:07.362Z,20.73
2018-04-15T18:21:34.941Z,20.70
2018-04-15T18:24:02.548Z,20.64
2018-04-15T18:26:30.109Z,20.65
2018-04-15T18:28:57.643Z,20.64
2018-04-15T18:31:25.262Z,20.58
2018-04-15T18:33:52.810Z,20.54
2018-04-15T18:36:20.416Z,20.47
2018-04-15T18:38:48.475Z,20.42
2018-04-15T18:41:16.087Z,20.36
2018-04-15T18:43:43.657Z,20.29
2018-04-15T18:46:11.200Z,20.28
2018-04-15T18:48:38.917Z,20.27
2018-04-15T18:51:06.449Z,20.25
2018-04-15T18:53:34.013Z,20.23
2018-04-15T18:56:01.620Z,20.21
2018-04-15T18:58:29.316Z,20.20
2018-04-15T19:00:56.838Z,20.18
2018-04-15T19:03:24.382Z,20.13
2018-04-15T19:05:51.946Z,20.11
2018-04-15T19:08:19.494Z,20.08
2018-04-15T19:10:47.153Z,20.08
2018-04-15T19:13:14.735Z,20.04
2018-04-15T19:15:42.446Z,20.03
2018-04-15T19:18:09.991Z,19.98
2018-04-15T19:20:37.521Z,19.98
2018-04-15T19:23:05.052Z,19.95
2018-04-15T19:25:32.570Z,19.97
2018-04-15T19:28:01.615Z,20.00
2018-04-15T19:30:29.399Z,19.95
2018-04-15T19:32:56.991Z,19.93
2018-04-15T19:35:24.568Z,19.90
2018-04-15T19:37:52.082Z,19.90
2018-04-15T19:40:20.180Z,19.88
2018-04-15T19:42:47.744Z,19.86
2018-04-15T19:45:15.449Z,19.84
2018-04-15T19:47:42.965Z,19.80
2018-04-15T19:50:10.651Z,19.74
2018-04-15T19:52:38.228Z,19.71
2018-04-15T19:55:06.179Z,19.68
2018-04-15T19:57:33.863Z,19.64
2018-04-15T20:00:02.254Z,19.64
2018-04-15T20:02:30.813Z,19.59
2018-04-15T20:04:59.787Z,19.54
2018-04-15T20:07:27.873Z,19.48
2018-04-15T20:09:55.812Z,19.49
2018-04-15T20:12:24.870Z,19.47
2018-04-15T20:14:52.432Z,19.39
2018-04-15T20:17:20.047Z,19.35
2018-04-15T20:19:47.852Z,19.31
2018-04-15T20:22:15.434Z,19.24
2018-04-15T20:24:43.054Z,19.22
2018-04-15T20:27:11.091Z,19.16
2018-04-15T20:29:38.793Z,19.13
2018-04-15T20:32:06.343Z,19.08
2018-04-15T20:34:33.970Z,19.06
2018-04-15T20:37:01.566Z,19.03
2018-04-15T20:39:29.552Z,18.92
2018-04-15T20:41:57.376Z,18.84
2018-04-15T20:44:25.002Z,18.78
2018-04-15T20:46:52.598Z,18.75
2018-04-15T20:49:20.390Z,18.70
2018-04-15T20:51:47.936Z,18.68
2018-04-15T20:54:15.476Z,18.64
2018-04-15T20:56:43.037Z,18.63
2018-04-15T20:59:10.637Z,18.55
2018-04-15T21:01:38.256Z,18.52
2018-04-15T21:04:05.839Z,18.56
2018-04-15T21:06:33.450Z,18.54
2018-04-15T21:09:00.968Z,18.51
2018-04-15T21:11:28.849Z,18.50
2018-04-15T21:13:56.421Z,18.49
2018-04-15T21:16:23.963Z,18.44
2018-04-15T21:18:52.910Z,18.41
2018-04-15T21:21:20.617Z,18.34
2018-04-15T21:23:48.200Z,18.20
2018-04-15T21:26:15.739Z,17.98
2018-04-15T21:28:43.375Z,17.98
2018-04-15T21:31:10.917Z,17.94
2018-04-15T21:33:38.499Z,17.95
2018-04-15T21:36:06.038Z,17.94
2018-04-15T21:38:33.679Z,17.89
2018-04-15T21:41:01.519Z,17.83
2018-04-15T21:43:29.028Z,17.78
2018-04-15T21:45:56.602Z,17.73
2018-04-15T21:48:24.121Z,17.70
2018-04-15T21:50:51.672Z,17.70
2018-04-15T21:53:19.524Z,17.75
2018-04-15T21:55:47.051Z,17.77
2018-04-15T21:58:14.591Z,17.75
2018-04-15T22:00:42.113Z,17.74
2018-04-15T22:03:09.663Z,17.72
2018-04-15T22:05:37.189Z,17.73
2018-04-15T22:08:04.955Z,17.72
2018-04-15T22:10:32.486Z,17.68
2018-04-15T22:13:05.061Z,17.67
2018-04-15T22:15:32.570Z,17.67
2018-04-15T22:18:00.114Z,17.64
2018-04-15T22:20:27.656Z,17.59
2018-04-15T22:22:55.279Z,17.55
2018-04-15T22:25:23.556Z,17.49
2018-04-15T22:27:51.081Z,17.48
2018-04-15T22:30:18.635Z,17.44
2018-04-15T22:32:46.195Z,17.39
2018-04-15T22:35:13.744Z,17.33
2018-04-15T22:37:41.366Z,17.26
2018-04-15T22:40:09.223Z,17.22
2018-04-15T22:42:36.783Z,17.20
2018-04-15T22:45:04.378Z,17.17
2018-04-15T22:47:31.931Z,17.14
2018-04-15T22:50:04.912Z,17.13
2018-04-15T22:52:32.447Z,17.09
2018-04-15T22:54:59.989Z,17.07
2018-04-15T22:57:27.518Z,17.09
2018-04-15T22:59:55.052Z,16.99
2018-04-15T23:02:22.619Z,16.96
2018-04-15T23:04:50.133Z,16.88
2018-04-15T23:07:17.657Z,16.89
2018-04-15T23:09:45.297Z,16.79
2018-04-15T23:12:12.821Z,16.66
2018-04-15T23:14:40.383Z,16.66
2018-04-15T23:17:07.987Z,16.64
2018-04-15T23:19:35.533Z,16.57
2018-04-15T23:22:03.131Z,16.56
2018-04-15T23:24:30.679Z,16.51
2018-04-15T23:26:58.244Z,16.49
2018-04-15T23:29:25.837Z,16.49
2018-04-15T23:31:53.344Z,16.47
2018-04-15T23:34:20.891Z,16.48
2018-04-15T23:36:48.431Z,16.40
2018-04-15T23:39:16.010Z,16.33
2018-04-15T23:41:43.774Z,16.35
2018-04-15T23:44:11.648Z,16.31
2018-04-15T23:46:39.210Z,16.35
2018-04-15T23:49:07.172Z,16.31
2018-04-15T23:51:35.044Z,16.29
2018-04-15T23:54:02.593Z,16.28
2018-04-15T23:56:30.110Z,16.30
2018-04-15T23:58:57.656Z,16.26
